Time;durP1;ratioP1;P1;durP2;ratioP2;P2;SDS_P1;SDS_P2;PMS_P1;PMS_P2;Temp;Humidity;BMP_temperature;BMP_pressure;BME280_temperature;BME280_humidity;BME280_pressure;Samples;Min_cycle;Max_cycle;Signal;HPM_P1;HPM_P2
2021/03/30 00:00:13;;;;;;;13.32;6.28;;;5.70;99.90;;;;;;5071749;28;20109;-66
2021/03/30 00:03:18;;;;;;;15.90;7.90;;;5.60;99.90;;;;;;5078546;28;20128;-66
2021/03/30 00:06:23;;;;;;;21.58;9.60;;;5.60;99.90;;;;;;5069676;28;20021;-66
2021/03/30 00:09:27;;;;;;;20.55;8.93;;;5.60;99.90;;;;;;5081885;28;20512;-66
2021/03/30 00:12:32;;;;;;;17.58;8.00;;;5.60;99.90;;;;;;5058788;28;20195;-66
2021/03/30 00:15:37;;;;;;;18.45;8.85;;;5.60;99.90;;;;;;5068052;28;20106;-67
2021/03/30 00:18:41;;;;;;;22.35;9.02;;;5.60;99.90;;;;;;5070603;28;20105;-66
2021/03/30 00:21:46;;;;;;;18.27;7.63;;;5.50;99.90;;;;;;5070039;28;20104;-66
2021/03/30 00:24:50;;;;;;;14.27;6.50;;;5.50;99.90;;;;;;5065659;28;20128;-66
2021/03/30 00:27:55;;;;;;;16.90;7.88;;;5.40;99.90;;;;;;5051855;28;20454;-66
2021/03/30 00:30:59;;;;;;;18.05;8.18;;;5.40;99.90;;;;;;5069457;28;20040;-66
2021/03/30 00:34:04;;;;;;;15.80;7.72;;;5.40;99.90;;;;;;5079881;28;20396;-66
2021/03/30 00:37:08;;;;;;;17.63;8.70;;;5.30;99.90;;;;;;5064038;28;20040;-66
2021/03/30 00:40:13;;;;;;;17.73;7.78;;;5.20;99.90;;;;;;5057457;28;20415;-66
2021/03/30 00:43:18;;;;;;;17.13;9.45;;;5.20;99.90;;;;;;5055387;28;20206;-66
2021/03/30 00:46:24;;;;;;;17.77;9.13;;;5.20;99.90;;;;;;5065166;28;20043;-66
2021/03/30 00:49:25;;;;;;;16.70;7.93;;;5.20;99.90;;;;;;5087649;28;20037;-66
2021/03/30 00:52:10;;;;;;;20.02;9.88;;;5.30;99.90;;;;;;5071465;28;20212;-66
2021/03/30 00:54:54;;;;;;;20.30;9.70;;;5.20;99.90;;;;;;5069016;28;20063;-66
2021/03/30 00:57:39;;;;;;;16.98;7.97;;;5.10;99.90;;;;;;5087762;28;20098;-67
2021/03/30 01:00:24;;;;;;;16.52;8.07;;;5.00;99.90;;;;;;5084167;28;20029;-66
2021/03/30 01:03:08;;;;;;;15.60;8.65;;;5.00;99.90;;;;;;5055404;28;20046;-66
2021/03/30 01:05:52;;;;;;;17.77;8.77;;;5.10;99.90;;;;;;5070091;28;20044;-66
2021/03/30 01:08:57;;;;;;;17.02;7.55;;;5.00;99.90;;;;;;5071265;28;20040;-66
2021/03/30 01:12:26;;;;;;;16.35;7.35;;;5.00;99.90;;;;;;5066583;28;20432;-66
2021/03/30 01:15:31;;;;;;;13.25;6.18;;;4.90;99.90;;;;;;5064363;28;20139;-66
2021/03/30 01:18:46;;;;;;;14.52;6.80;;;4.90;99.90;;;;;;5078034;28;20028;-66
2021/03/30 01:21:59;;;;;;;15.27;6.13;;;4.90;99.90;;;;;;5050658;28;20037;-66
2021/03/30 01:25:05;;;;;;;12.10;5.95;;;4.80;99.90;;;;;;5065983;28;20060;-66
2021/03/30 01:28:52;;;;;;;12.90;6.75;;;4.90;99.90;;;;;;5073496;28;20527;-66
2021/03/30 01:31:47;;;;;;;19.10;8.85;;;4.80;99.90;;;;;;5056047;28;20040;-66
2021/03/30 01:34:32;;;;;;;15.93;7.72;;;4.50;99.90;;;;;;5069067;28;20029;-66
2021/03/30 01:37:18;;;;;;;16.08;7.50;;;4.40;99.90;;;;;;5053825;28;20067;-66
2021/03/30 01:40:27;;;;;;;13.05;6.50;;;4.40;99.90;;;;;;5063378;28;20029;-66
2021/03/30 01:43:19;;;;;;;13.25;6.80;;;4.30;99.90;;;;;;5086646;28;20045;-66
2021/03/30 01:46:04;;;;;;;13.38;7.05;;;4.40;99.90;;;;;;5069297;28;20028;-66
2021/03/30 01:48:49;;;;;;;16.92;7.30;;;4.30;99.90;;;;;;5052437;28;20177;-66
2021/03/30 01:51:34;;;;;;;14.82;6.18;;;4.20;99.90;;;;;;5067380;28;20554;-66
2021/03/30 01:54:21;;;;;;;12.93;6.75;;;4.10;99.90;;;;;;5070382;28;20044;-66
2021/03/30 01:57:06;;;;;;;15.35;6.55;;;4.10;99.90;;;;;;5085708;28;20234;-66
2021/03/30 02:00:10;;;;;;;14.05;5.80;;;4.10;99.90;;;;;;5056583;28;20036;-66
2021/03/30 02:02:56;;;;;;;14.05;5.47;;;4.10;99.90;;;;;;5068634;28;20075;-66
2021/03/30 02:06:05;;;;;;;14.90;5.72;;;4.00;99.90;;;;;;5065743;28;20082;-66
2021/03/30 02:09:15;;;;;;;11.20;5.68;;;3.90;99.90;;;;;;5069268;28;20074;-66
2021/03/30 02:12:23;;;;;;;11.90;5.13;;;3.80;99.90;;;;;;5078950;28;20170;-66
2021/03/30 02:15:28;;;;;;;9.73;5.13;;;3.90;99.90;;;;;;5063399;28;20084;-66
2021/03/30 02:18:48;;;;;;;9.57;5.28;;;4.00;99.90;;;;;;5079858;28;20414;-66
2021/03/30 02:22:05;;;;;;;10.70;4.45;;;4.00;99.90;;;;;;5066433;28;20386;-67
2021/03/30 02:24:51;;;;;;;9.15;4.03;;;4.10;99.90;;;;;;5067015;28;20024;-66
2021/03/30 02:27:41;;;;;;;9.65;4.35;;;4.10;99.90;;;;;;5085583;28;20033;-66
2021/03/30 02:30:47;;;;;;;9.48;4.82;;;4.10;99.90;;;;;;5065051;28;20062;-66
2021/03/30 02:33:57;;;;;;;9.07;4.68;;;4.10;99.90;;;;;;5067407;28;20032;-66
2021/03/30 02:37:03;;;;;;;9.30;4.55;;;4.10;99.90;;;;;;5068075;28;20036;-66
2021/03/30 02:40:11;;;;;;;9.02;4.20;;;4.00;99.90;;;;;;5067021;28;21417;-66
2021/03/30 02:43:16;;;;;;;9.52;4.55;;;4.00;99.90;;;;;;5068673;28;20447;-66
2021/03/30 02:46:23;;;;;;;8.07;4.60;;;3.90;99.90;;;;;;5068678;28;20035;-66
2021/03/30 02:49:29;;;;;;;10.55;5.40;;;3.80;99.90;;;;;;5055373;28;20032;-66
2021/03/30 02:52:33;;;;;;;11.30;5.45;;;3.70;99.90;;;;;;5020928;28;20029;-66
2021/03/30 02:55:18;;;;;;;12.70;6.00;;;3.70;99.90;;;;;;5063110;28;20060;-66
2021/03/30 02:58:05;;;;;;;13.32;5.70;;;3.70;99.90;;;;;;5069922;28;20094;-66
2021/03/30 03:00:52;;;;;;;11.95;6.18;;;3.70;99.90;;;;;;5056490;28;20086;-66
2021/03/30 03:03:38;;;;;;;9.23;5.13;;;3.70;99.90;;;;;;5085433;28;20178;-66
2021/03/30 03:06:44;;;;;;;10.68;5.63;;;3.60;99.90;;;;;;5067144;28;20032;-66
2021/03/30 03:09:49;;;;;;;14.10;5.78;;;3.60;99.90;;;;;;5057540;28;20136;-66
2021/03/30 03:12:54;;;;;;;11.38;5.45;;;3.60;99.90;;;;;;5067893;28;20037;-66
2021/03/30 03:15:59;;;;;;;14.93;4.75;;;3.50;99.90;;;;;;5067823;28;20041;-66
2021/03/30 03:19:06;;;;;;;8.95;4.28;;;3.60;99.90;;;;;;5066541;28;20044;-66
2021/03/30 03:22:11;;;;;;;9.55;5.53;;;3.60;99.90;;;;;;5066939;28;20067;-66
2021/03/30 03:25:16;;;;;;;10.68;4.90;;;3.60;99.90;;;;;;5055391;28;20025;-66
2021/03/30 03:28:21;;;;;;;9.82;4.85;;;3.50;99.90;;;;;;5067757;28;20355;-67
2021/03/30 03:31:29;;;;;;;9.00;4.65;;;3.60;99.90;;;;;;5062664;28;20452;-66
2021/03/30 03:34:36;;;;;;;12.07;4.57;;;3.60;99.90;;;;;;5048794;28;20403;-67
2021/03/30 03:37:21;;;;;;;9.75;4.90;;;3.60;99.90;;;;;;5099340;28;20088;-66
2021/03/30 03:40:06;;;;;;;10.05;5.10;;;3.60;99.90;;;;;;5096256;28;20524;-67
2021/03/30 03:42:50;;;;;;;12.80;5.88;;;3.60;99.90;;;;;;5068455;28;20036;-66
2021/03/30 03:45:36;;;;;;;13.77;5.10;;;3.60;99.90;;;;;;5082952;28;20036;-66
2021/03/30 03:48:20;;;;;;;8.60;4.40;;;3.60;99.90;;;;;;5085212;28;20044;-66
2021/03/30 03:51:05;;;;;;;8.90;4.82;;;3.50;99.90;;;;;;5081331;28;20039;-66
2021/03/30 03:53:53;;;;;;;10.63;5.50;;;3.40;99.90;;;;;;5068318;28;20502;-66
2021/03/30 03:56:55;;;;;;;9.73;4.90;;;3.40;99.90;;;;;;5049803;28;20116;-66
2021/03/30 03:59:43;;;;;;;8.65;4.50;;;3.30;99.90;;;;;;5075515;28;20047;-66
2021/03/30 04:03:01;;;;;;;10.70;5.38;;;3.30;99.90;;;;;;5073368;28;20070;-66
2021/03/30 04:05:50;;;;;;;9.90;5.30;;;3.20;99.90;;;;;;5033925;28;20095;-66
2021/03/30 04:08:41;;;;;;;9.50;5.30;;;3.20;99.90;;;;;;5053511;28;20066;-66
2021/03/30 04:11:49;;;;;;;14.63;5.53;;;3.10;99.90;;;;;;5059439;28;20068;-66
2021/03/30 04:14:54;;;;;;;11.70;5.80;;;3.10;99.90;;;;;;5066493;28;20060;-66
2021/03/30 04:17:59;;;;;;;12.80;5.18;;;3.00;99.90;;;;;;5048856;28;20072;-66
2021/03/30 04:21:05;;;;;;;11.38;5.78;;;2.90;99.90;;;;;;5065154;28;20119;-66
2021/03/30 04:24:10;;;;;;;10.60;5.28;;;2.90;99.90;;;;;;5060947;28;20438;-66
2021/03/30 04:27:15;;;;;;;9.68;4.75;;;2.90;99.90;;;;;;5077838;28;20036;-66
2021/03/30 04:30:20;;;;;;;10.20;4.82;;;3.00;99.90;;;;;;5069968;28;20046;-66
2021/03/30 04:33:24;;;;;;;8.45;4.07;;;3.00;99.90;;;;;;5073194;28;20083;-66
2021/03/30 04:36:29;;;;;;;8.95;4.82;;;2.90;99.90;;;;;;5068013;28;20079;-67
2021/03/30 04:39:13;;;;;;;7.93;3.58;;;3.00;99.90;;;;;;5060976;28;20063;-66
2021/03/30 04:41:58;;;;;;;8.48;3.95;;;2.90;99.90;;;;;;5045750;28;20025;-66
2021/03/30 04:44:42;;;;;;;9.05;4.50;;;2.90;99.90;;;;;;5061631;28;20460;-66
2021/03/30 04:47:47;;;;;;;12.55;4.60;;;2.80;99.90;;;;;;5067812;28;20409;-66
2021/03/30 04:50:51;;;;;;;10.65;4.35;;;2.80;99.90;;;;;;5069550;28;20065;-66
2021/03/30 04:53:56;;;;;;;9.25;4.28;;;2.70;99.90;;;;;;5067899;28;20032;-67
2021/03/30 04:57:00;;;;;;;8.85;3.67;;;2.70;99.90;;;;;;5069664;28;20028;-67
2021/03/30 05:00:05;;;;;;;7.60;3.50;;;2.70;99.90;;;;;;5070268;28;20036;-66
2021/03/30 05:03:09;;;;;;;11.88;5.95;;;2.70;99.90;;;;;;5073348;28;20041;-65
2021/03/30 05:06:11;;;;;;;8.52;5.53;;;2.60;99.90;;;;;;5065868;28;20478;-65
2021/03/30 05:08:55;;;;;;;9.68;5.20;;;2.50;99.90;;;;;;5075813;28;20109;-66
2021/03/30 05:11:39;;;;;;;8.68;4.82;;;2.50;99.90;;;;;;5069434;28;20043;-66
2021/03/30 05:14:24;;;;;;;18.52;7.20;;;2.60;99.90;;;;;;5065848;28;20032;-66
2021/03/30 05:17:08;;;;;;;36.65;15.98;;;2.70;99.90;;;;;;5087630;28;20043;-66
2021/03/30 05:19:53;;;;;;;27.17;13.50;;;2.60;99.90;;;;;;5086590;28;20424;-66
2021/03/30 05:22:57;;;;;;;23.58;11.07;;;2.60;99.90;;;;;;5051417;28;20049;-66
2021/03/30 05:26:01;;;;;;;17.88;9.07;;;2.60;99.90;;;;;;5060017;28;20082;-66
2021/03/30 05:29:06;;;;;;;16.77;8.35;;;2.70;99.90;;;;;;5069564;28;20033;-66
2021/03/30 05:32:16;;;;;;;16.15;7.10;;;2.70;99.90;;;;;;5065491;28;20115;-66
2021/03/30 05:35:21;;;;;;;14.10;5.60;;;2.80;99.90;;;;;;5069501;28;20036;-66
2021/03/30 05:38:25;;;;;;;8.00;4.50;;;2.80;99.90;;;;;;5069070;28;20083;-66
2021/03/30 05:41:31;;;;;;;9.48;4.57;;;2.80;99.90;;;;;;5067248;28;20098;-66
2021/03/30 05:44:36;;;;;;;9.52;4.93;;;2.90;99.90;;;;;;5056935;28;20025;-65
2021/03/30 05:47:41;;;;;;;13.75;4.60;;;2.90;99.90;;;;;;5080803;28;20039;-66
2021/03/30 05:50:45;;;;;;;7.93;3.80;;;3.00;99.90;;;;;;5065323;28;20033;-66
2021/03/30 05:53:56;;;;;;;9.52;4.20;;;3.00;99.90;;;;;;5068797;28;20040;-67
2021/03/30 05:57:03;;;;;;;9.93;4.30;;;3.10;99.90;;;;;;5069300;28;20041;-68
2021/03/30 06:00:09;;;;;;;7.72;4.13;;;3.10;99.90;;;;;;5069116;28;20036;-67
2021/03/30 06:03:15;;;;;;;11.05;4.93;;;3.20;99.90;;;;;;5067898;28;20063;-68
2021/03/30 06:06:20;;;;;;;9.85;5.75;;;3.30;99.90;;;;;;5054419;28;20028;-68
2021/03/30 06:09:21;;;;;;;10.18;5.65;;;3.20;99.90;;;;;;5069812;28;20036;-68
2021/03/30 06:12:05;;;;;;;11.35;5.63;;;3.30;99.90;;;;;;5082282;28;20041;-68
2021/03/30 06:14:50;;;;;;;11.65;5.97;;;3.30;99.90;;;;;;5069472;28;20089;-68
2021/03/30 06:17:49;;;;;;;11.68;6.07;;;3.40;99.90;;;;;;5054088;28;20039;-67
2021/03/30 06:20:35;;;;;;;12.02;6.80;;;3.50;99.90;;;;;;5067768;28;20033;-67
2021/03/30 06:23:27;;;;;;;15.25;8.02;;;3.60;99.90;;;;;;5063016;28;20056;-67
2021/03/30 06:26:32;;;;;;;14.80;7.70;;;3.70;99.90;;;;;;5066440;28;20040;-68
2021/03/30 06:29:39;;;;;;;13.00;7.03;;;3.80;99.90;;;;;;5056855;28;20032;-66
2021/03/30 06:32:44;;;;;;;11.63;6.63;;;4.10;99.90;;;;;;5063440;28;20328;-68
2021/03/30 06:35:48;;;;;;;12.60;6.57;;;4.30;99.90;;;;;;5067127;28;20079;-67
2021/03/30 06:39:10;;;;;;;12.90;6.55;;;4.50;99.90;;;;;;5052184;28;20526;-68
2021/03/30 06:42:53;;;;;;;14.35;6.93;;;4.70;99.90;;;;;;5066795;28;20032;-68
2021/03/30 06:45:58;;;;;;;12.05;6.65;;;4.90;99.90;;;;;;5067446;28;20033;-67
2021/03/30 06:48:44;;;;;;;13.68;5.88;;;5.20;99.90;;;;;;5085489;28;20055;-66
2021/03/30 06:51:38;;;;;;;14.10;6.10;;;5.30;99.90;;;;;;5068540;28;20119;-65
2021/03/30 06:54:23;;;;;;;12.90;7.97;;;5.40;99.90;;;;;;5069038;28;20040;-66
2021/03/30 06:57:07;;;;;;;14.15;8.25;;;5.60;99.90;;;;;;5085952;28;20127;-66
2021/03/30 07:00:25;;;;;;;13.68;6.57;;;5.80;99.90;;;;;;5066420;28;20501;-67
2021/03/30 07:03:29;;;;;;;9.07;5.10;;;6.00;99.90;;;;;;5066607;28;20036;-66
2021/03/30 07:06:36;;;;;;;10.98;5.15;;;6.30;99.90;;;;;;5068570;28;20040;-66
2021/03/30 07:09:40;;;;;;;9.02;4.50;;;6.60;99.90;;;;;;5067581;28;20029;-66
2021/03/30 07:12:49;;;;;;;9.05;4.30;;;7.00;99.90;;;;;;5067532;28;20040;-66
2021/03/30 07:16:10;;;;;;;8.18;3.90;;;7.20;99.90;;;;;;5064878;28;20036;-66
2021/03/30 07:19:15;;;;;;;7.68;3.78;;;7.50;99.90;;;;;;5069215;28;20116;-66
2021/03/30 07:22:05;;;;;;;6.43;3.33;;;7.90;99.90;;;;;;5069064;28;20140;-66
2021/03/30 07:25:14;;;;;;;7.97;3.10;;;8.20;99.90;;;;;;5059489;28;20028;-66
2021/03/30 07:28:23;;;;;;;6.97;3.38;;;8.50;99.90;;;;;;5067865;28;20045;-66
2021/03/30 07:31:34;;;;;;;8.13;4.43;;;8.90;99.90;;;;;;5064620;28;20690;-66
2021/03/30 07:34:51;;;;;;;8.77;4.57;;;9.20;99.90;;;;;;5076764;28;20029;-66
2021/03/30 07:38:20;;;;;;;8.15;3.47;;;9.60;99.90;;;;;;5064267;28;20025;-66
2021/03/30 07:41:25;;;;;;;8.45;3.25;;;9.90;99.90;;;;;;5050902;28;20601;-66
2021/03/30 07:44:30;;;;;;;8.55;3.67;;;10.30;99.90;;;;;;5069303;28;20408;-66
2021/03/30 07:47:36;;;;;;;7.53;4.13;;;10.80;99.90;;;;;;5068500;28;20525;-67
2021/03/30 07:51:05;;;;;;;8.15;4.22;;;11.30;99.90;;;;;;5038518;28;20135;-66
2021/03/30 07:53:54;;;;;;;7.97;4.30;;;12.00;99.90;;;;;;5033402;28;20069;-67
2021/03/30 07:56:59;;;;;;;9.68;4.07;;;12.70;99.90;;;;;;5070827;28;20044;-67
2021/03/30 08:00:04;;;;;;;7.32;4.28;;;13.70;99.90;;;;;;5068036;28;20067;-66
2021/03/30 08:03:09;;;;;;;7.13;3.88;;;14.40;99.90;;;;;;5055874;28;20024;-66
2021/03/30 08:06:28;;;;;;;12.93;6.25;;;15.00;99.90;;;;;;5055003;28;20135;-67
2021/03/30 08:09:17;;;;;;;9.93;4.75;;;15.40;99.90;;;;;;5087194;28;20036;-67
2021/03/30 08:12:21;;;;;;;10.80;3.95;;;16.10;99.90;;;;;;5075645;28;20530;-67
2021/03/30 08:15:45;;;;;;;8.68;4.88;;;16.90;96.60;;;;;;5066145;28;20466;-67
2021/03/30 08:18:53;;;;;;;11.55;3.58;;;17.70;91.20;;;;;;5061824;28;20586;-67
2021/03/30 08:22:04;;;;;;;7.63;3.17;;;18.20;90.30;;;;;;5064630;28;20044;-67
2021/03/30 08:25:24;;;;;;;5.82;2.63;;;18.90;83.30;;;;;;5059044;28;20037;-67
2021/03/30 08:28:47;;;;;;;4.85;1.85;;;19.50;73.10;;;;;;5080528;28;20458;-68
2021/03/30 08:31:55;;;;;;;3.38;1.50;;;20.00;66.90;;;;;;5069365;28;20032;-68
2021/03/30 08:34:50;;;;;;;4.55;1.45;;;20.60;61.20;;;;;;5088066;28;20056;-68
2021/03/30 08:37:41;;;;;;;4.53;1.60;;;21.40;59.10;;;;;;5087330;28;20033;-67
2021/03/30 08:40:46;;;;;;;8.32;1.85;;;21.90;53.50;;;;;;5064640;28;20078;-67
2021/03/30 08:44:11;;;;;;;5.30;1.85;;;22.10;49.80;;;;;;5068858;28;20042;-68
2021/03/30 08:47:30;;;;;;;4.43;1.73;;;21.70;54.20;;;;;;5071470;28;20032;-68
2021/03/30 08:50:35;;;;;;;6.88;1.98;;;21.70;52.80;;;;;;5051382;28;20116;-68
2021/03/30 08:53:40;;;;;;;9.13;2.75;;;21.30;50.50;;;;;;5051697;28;20048;-68
2021/03/30 08:56:44;;;;;;;6.57;1.80;;;21.20;52.60;;;;;;5080360;28;20037;-68
2021/03/30 08:59:49;;;;;;;7.13;2.50;;;21.50;53.20;;;;;;5058687;28;20501;-68
2021/03/30 09:03:02;;;;;;;4.90;2.00;;;21.40;52.80;;;;;;5069564;28;20033;-68
2021/03/30 09:06:36;;;;;;;7.13;2.42;;;21.50;52.10;;;;;;5068602;28;20051;-68
2021/03/30 09:09:40;;;;;;;4.90;2.15;;;21.50;51.90;;;;;;5068794;28;20037;-68
2021/03/30 09:12:46;;;;;;;7.32;1.85;;;21.80;52.60;;;;;;5068713;28;20501;-68
2021/03/30 09:16:08;;;;;;;7.47;2.15;;;21.90;49.60;;;;;;5069388;28;20076;-68
2021/03/30 09:19:33;;;;;;;9.35;2.15;;;21.90;50.10;;;;;;5070012;28;20482;-68
2021/03/30 09:22:43;;;;;;;6.35;2.10;;;22.40;50.20;;;;;;5057137;28;20119;-69
2021/03/30 09:25:51;;;;;;;10.02;2.22;;;22.50;50.10;;;;;;5069893;28;20052;-68
2021/03/30 09:28:52;;;;;;;6.90;2.17;;;22.30;48.30;;;;;;5064579;28;20033;-68
2021/03/30 09:31:36;;;;;;;4.40;1.58;;;22.90;50.00;;;;;;5066949;28;20028;-68
2021/03/30 09:34:44;;;;;;;7.20;2.03;;;23.20;48.20;;;;;;5073990;28;20446;-68
2021/03/30 09:37:56;;;;;;;5.63;1.77;;;23.40;46.60;;;;;;5054888;28;20035;-68
2021/03/30 09:41:01;;;;;;;4.90;1.88;;;23.00;47.10;;;;;;5080033;28;20066;-68
2021/03/30 09:44:07;;;;;;;5.00;1.85;;;23.20;46.90;;;;;;5065127;28;20086;-68
2021/03/30 09:47:13;;;;;;;4.35;1.50;;;23.50;47.60;;;;;;5068497;28;20051;-67
2021/03/30 09:50:00;;;;;;;5.55;2.25;;;24.00;47.10;;;;;;5050222;28;20093;-68
2021/03/30 09:52:44;;;;;;;11.70;2.15;;;24.40;45.80;;;;;;5053309;28;20035;-68
2021/03/30 09:55:49;;;;;;;11.30;1.92;;;24.30;44.70;;;;;;5065918;28;20737;-68
2021/03/30 09:58:59;;;;;;;8.90;1.50;;;24.40;45.10;;;;;;5068975;28;20047;-68
2021/03/30 10:01:47;;;;;;;6.90;1.88;;;24.00;45.30;;;;;;5056494;28;20110;-67
2021/03/30 10:05:06;;;;;;;9.13;1.70;;;24.30;45.00;;;;;;5071227;28;20574;-68
2021/03/30 10:07:51;;;;;;;11.25;2.00;;;24.90;43.60;;;;;;5074973;28;20052;-68
2021/03/30 10:10:43;;;;;;;5.18;1.73;;;24.60;42.10;;;;;;5082283;28;20040;-68
2021/03/30 10:13:29;;;;;;;9.05;1.60;;;25.00;43.10;;;;;;5076966;28;20430;-68
2021/03/30 10:16:34;;;;;;;4.53;1.70;;;25.20;42.40;;;;;;5068998;28;20033;-68
2021/03/30 10:19:46;;;;;;;6.00;1.83;;;25.20;43.30;;;;;;5069703;28;20581;-68
2021/03/30 10:22:52;;;;;;;2.97;1.10;;;25.60;42.20;;;;;;5070586;28;20028;-68
2021/03/30 10:25:57;;;;;;;6.07;1.55;;;26.20;41.80;;;;;;5068939;28;20037;-68
2021/03/30 10:29:06;;;;;;;8.20;1.35;;;25.90;41.40;;;;;;5065452;28;20063;-68
2021/03/30 10:32:15;;;;;;;5.13;1.30;;;25.90;41.20;;;;;;5068760;28;20048;-68
2021/03/30 10:35:20;;;;;;;5.75;1.42;;;25.70;41.20;;;;;;5066899;28;20029;-68
2021/03/30 10:38:25;;;;;;;7.68;1.52;;;24.90;42.20;;;;;;5065170;28;20037;-68
2021/03/30 10:41:34;;;;;;;5.85;1.50;;;24.50;42.20;;;;;;5068254;28;20032;-68
2021/03/30 10:44:40;;;;;;;4.68;1.65;;;24.10;42.50;;;;;;5067661;28;20115;-68
2021/03/30 10:47:48;;;;;;;4.93;1.50;;;23.50;42.00;;;;;;5055993;28;20452;-68
2021/03/30 10:50:54;;;;;;;3.60;1.50;;;23.30;42.80;;;;;;5065931;28;20036;-67
2021/03/30 10:53:39;;;;;;;5.18;1.50;;;23.10;44.40;;;;;;5051078;28;20040;-68
2021/03/30 10:56:23;;;;;;;3.95;1.10;;;23.00;45.40;;;;;;5069713;28;20454;-67
2021/03/30 10:59:12;;;;;;;4.40;1.50;;;22.80;44.60;;;;;;5051442;28;20040;-67
2021/03/30 11:01:56;;;;;;;4.60;1.40;;;22.50;43.50;;;;;;5083861;28;20040;-68
2021/03/30 11:05:01;;;;;;;4.97;1.30;;;22.50;44.40;;;;;;5067787;28;20033;-68
2021/03/30 11:08:05;;;;;;;5.43;1.10;;;22.40;44.40;;;;;;5060327;28;20469;-67
2021/03/30 11:10:49;;;;;;;6.28;1.65;;;22.40;44.10;;;;;;5069168;28;20076;-67
2021/03/30 11:13:33;;;;;;;3.15;0.95;;;22.40;44.90;;;;;;5050754;28;20120;-67
2021/03/30 11:16:18;;;;;;;5.53;1.10;;;22.50;45.80;;;;;;5051361;28;20086;-68
2021/03/30 11:19:04;;;;;;;5.45;1.20;;;22.60;45.00;;;;;;5069744;28;20067;-67
2021/03/30 11:21:49;;;;;;;3.95;1.20;;;22.60;44.40;;;;;;5078232;28;20035;-67
2021/03/30 11:24:35;;;;;;;8.70;1.10;;;22.40;44.80;;;;;;5068865;28;20032;-67
2021/03/30 11:27:33;;;;;;;5.10;1.40;;;22.00;43.40;;;;;;5069111;28;20066;-67
2021/03/30 11:30:21;;;;;;;3.95;1.00;;;22.00;45.20;;;;;;5056426;28;20055;-67
2021/03/30 11:33:29;;;;;;;4.03;1.30;;;22.10;43.80;;;;;;5068014;28;20525;-68
2021/03/30 11:36:39;;;;;;;6.53;1.70;;;22.20;43.80;;;;;;5074297;28;20033;-67
2021/03/30 11:39:44;;;;;;;7.65;1.60;;;22.20;42.70;;;;;;5075522;28;20024;-67
2021/03/30 11:42:49;;;;;;;8.65;1.65;;;22.20;43.30;;;;;;5069237;28;20187;-67
2021/03/30 11:45:53;;;;;;;8.50;1.20;;;22.00;46.20;;;;;;5069492;28;20051;-67
2021/03/30 11:48:39;;;;;;;5.18;1.08;;;22.10;43.10;;;;;;5051454;28;20379;-67
2021/03/30 11:51:23;;;;;;;4.68;1.35;;;22.10;43.60;;;;;;5063964;28;20935;-67
2021/03/30 11:54:07;;;;;;;4.40;1.35;;;22.20;43.40;;;;;;5071400;28;20528;-67
2021/03/30 11:56:52;;;;;;;3.83;1.10;;;22.20;42.80;;;;;;5044679;28;20043;-67
2021/03/30 11:59:36;;;;;;;5.88;1.15;;;22.50;44.00;;;;;;5059168;28;20388;-67
2021/03/30 12:02:20;;;;;;;4.55;1.00;;;22.60;43.30;;;;;;5071527;28;20036;-67
2021/03/30 12:05:25;;;;;;;4.15;1.27;;;22.70;42.10;;;;;;5058529;28;20041;-67
2021/03/30 12:08:30;;;;;;;4.57;1.25;;;22.70;44.10;;;;;;5056111;28;20036;-67
2021/03/30 12:11:34;;;;;;;4.32;1.00;;;22.80;41.40;;;;;;5058396;28;20047;-67
2021/03/30 12:14:39;;;;;;;4.28;1.30;;;22.80;41.10;;;;;;5064718;28;20036;-67
2021/03/30 12:17:44;;;;;;;5.82;1.10;;;22.80;41.40;;;;;;5065139;28;20032;-67
2021/03/30 12:20:47;;;;;;;4.20;0.95;;;22.80;40.50;;;;;;5062174;28;20044;-67
2021/03/30 12:23:51;;;;;;;3.03;1.02;;;22.70;41.90;;;;;;5073047;28;20094;-67
2021/03/30 12:26:55;;;;;;;4.65;1.02;;;22.80;41.00;;;;;;5064912;28;20024;-67
2021/03/30 12:30:00;;;;;;;3.42;0.93;;;23.00;42.20;;;;;;5078061;28;20032;-67
2021/03/30 12:33:04;;;;;;;4.88;1.20;;;23.20;40.60;;;;;;5046450;28;20566;-67
2021/03/30 12:36:09;;;;;;;2.70;0.77;;;23.40;39.70;;;;;;5059987;28;20128;-67
2021/03/30 12:39:14;;;;;;;5.15;0.90;;;23.40;38.50;;;;;;5075750;28;20501;-67
2021/03/30 12:42:18;;;;;;;5.18;1.10;;;23.40;40.40;;;;;;5071207;28;20064;-67
2021/03/30 12:45:23;;;;;;;5.82;1.25;;;23.40;40.20;;;;;;5067125;28;20036;-67
2021/03/30 12:48:27;;;;;;;5.90;0.90;;;23.60;38.50;;;;;;5057697;28;20040;-67
2021/03/30 12:51:32;;;;;;;3.42;0.90;;;23.90;38.50;;;;;;5068106;28;20041;-67
2021/03/30 12:54:37;;;;;;;6.20;1.20;;;24.20;38.00;;;;;;5057115;28;20033;-67
2021/03/30 12:57:41;;;;;;;2.88;0.80;;;24.30;37.60;;;;;;5057480;28;20051;-67
2021/03/30 13:00:46;;;;;;;2.22;0.90;;;24.20;37.40;;;;;;5062581;28;20115;-67
2021/03/30 13:03:51;;;;;;;4.03;0.75;;;24.30;35.70;;;;;;5068869;28;20363;-67
2021/03/30 13:06:56;;;;;;;4.07;1.13;;;24.40;35.70;;;;;;5069672;28;20041;-67
2021/03/30 13:10:00;;;;;;;3.88;0.90;;;25.30;36.00;;;;;;5067777;28;20057;-67
2021/03/30 13:13:04;;;;;;;6.57;0.98;;;27.10;34.50;;;;;;5070259;28;20036;-68
2021/03/30 13:16:09;;;;;;;1.67;0.68;;;28.60;32.40;;;;;;5068659;28;20490;-67
2021/03/30 13:19:14;;;;;;;3.42;0.85;;;30.60;32.50;;;;;;5064068;28;20074;-68
2021/03/30 13:22:20;;;;;;;4.70;0.82;;;31.80;31.50;;;;;;5063915;28;20052;-68
2021/03/30 13:25:33;;;;;;;3.70;0.80;;;32.30;30.20;;;;;;5069779;28;20047;-68
2021/03/30 13:28:38;;;;;;;3.78;1.00;;;33.40;29.30;;;;;;5057360;28;20139;-68
2021/03/30 13:31:42;;;;;;;4.20;1.00;;;34.30;28.70;;;;;;5070246;28;20365;-68
2021/03/30 13:34:48;;;;;;;3.47;0.82;;;34.50;28.00;;;;;;5068496;28;20036;-67
2021/03/30 13:37:53;;;;;;;6.47;0.70;;;34.30;27.40;;;;;;5067416;28;20516;-68
2021/03/30 13:40:59;;;;;;;4.30;0.80;;;33.70;28.30;;;;;;5069199;28;20044;-68
2021/03/30 13:44:04;;;;;;;2.58;0.80;;;34.40;28.20;;;;;;5071370;28;20037;-68
2021/03/30 13:47:09;;;;;;;4.22;0.90;;;35.50;27.80;;;;;;5070965;28;20468;-68
2021/03/30 13:50:14;;;;;;;4.15;0.80;;;36.60;28.20;;;;;;5068645;28;20113;-67
2021/03/30 13:53:19;;;;;;;3.55;0.90;;;37.10;27.00;;;;;;5071436;28;20113;-68
2021/03/30 13:56:23;;;;;;;2.28;0.68;;;38.10;27.50;;;;;;5066394;28;20028;-67
2021/03/30 13:59:28;;;;;;;4.80;0.82;;;37.70;25.90;;;;;;5072264;28;20385;-68
2021/03/30 14:02:33;;;;;;;4.28;0.80;;;37.80;26.20;;;;;;5066980;28;20043;-68
2021/03/30 14:05:37;;;;;;;3.28;0.70;;;36.50;25.80;;;;;;5068164;28;20444;-65
2021/03/30 14:08:42;;;;;;;3.42;0.90;;;36.80;25.90;;;;;;5069346;28;20033;-65
2021/03/30 14:14:57;;;;;;;4.80;1.10;;;38.00;26.70;;;;;;5061096;28;20028;-65
2021/03/30 14:21:17;;;;;;;4.82;0.98;;;36.80;25.90;;;;;;5067100;28;20473;-65
2021/03/30 14:24:56;;;;;;;2.53;0.90;;;36.30;26.20;;;;;;5054229;28;20072;-65
2021/03/30 14:28:00;;;;;;;3.88;0.95;;;36.50;27.10;;;;;;5066128;28;20089;-65
2021/03/30 14:31:05;;;;;;;1.85;0.60;;;37.20;26.90;;;;;;5048649;28;20033;-65
2021/03/30 14:34:12;;;;;;;6.47;0.90;;;37.50;26.80;;;;;;5048818;28;20052;-66
2021/03/30 14:37:19;;;;;;;6.38;1.00;;;37.20;26.40;;;;;;5050031;28;20456;-65
2021/03/30 14:40:30;;;;;;;4.38;0.90;;;35.90;26.50;;;;;;5065829;28;20027;-65
2021/03/30 14:53:37;;;;;;;5.88;1.05;;;35.00;27.60;;;;;;5067855;28;20098;-65
2021/03/30 14:56:51;;;;;;;3.55;0.80;;;35.80;26.90;;;;;;5064436;28;20029;-66
2021/03/30 14:59:59;;;;;;;3.35;0.90;;;36.90;27.10;;;;;;5072053;28;20024;-66
2021/03/30 15:06:07;;;;;;;2.83;0.82;;;38.30;27.20;;;;;;5069632;28;20124;-66
2021/03/30 15:08:51;;;;;;;2.35;0.80;;;38.90;26.80;;;;;;5072454;28;20046;-66
2021/03/30 15:11:56;;;;;;;7.10;0.90;;;38.80;26.10;;;;;;5058360;28;20516;-66
2021/03/30 15:15:01;;;;;;;2.45;0.75;;;36.10;26.10;;;;;;5073154;28;20036;-66
2021/03/30 15:18:06;;;;;;;2.88;0.70;;;36.70;27.20;;;;;;5049821;28;20431;-67
2021/03/30 15:21:11;;;;;;;3.47;0.80;;;36.90;26.70;;;;;;5067973;28;20037;-66
2021/03/30 15:24:16;;;;;;;3.22;0.65;;;37.50;27.70;;;;;;5064519;28;20731;-66
2021/03/30 15:27:22;;;;;;;3.30;0.98;;;37.90;26.00;;;;;;5066918;28;20386;-66
2021/03/30 15:30:27;;;;;;;4.32;1.75;;;36.80;26.60;;;;;;5068178;28;20033;-67
2021/03/30 15:33:12;;;;;;;57.15;38.28;;;36.70;26.20;;;;;;5053584;28;20398;-66
2021/03/30 15:35:56;;;;;;;8.07;4.07;;;37.00;27.10;;;;;;5048370;28;20067;-67
2021/03/30 15:38:41;;;;;;;7.65;2.00;;;37.50;26.70;;;;;;5067445;28;20279;-66
2021/03/30 15:41:25;;;;;;;7.45;1.13;;;38.10;26.60;;;;;;5051303;28;20090;-67
2021/03/30 15:44:30;;;;;;;4.53;1.02;;;36.20;25.60;;;;;;5050343;28;20490;-66
2021/03/30 15:47:18;;;;;;;3.80;1.10;;;35.40;25.60;;;;;;5082418;28;20067;-66
2021/03/30 15:50:09;;;;;;;2.92;0.82;;;36.10;25.90;;;;;;5085139;28;20477;-66
2021/03/30 15:53:15;;;;;;;3.97;1.25;;;35.20;25.40;;;;;;5039695;28;20025;-66
2021/03/30 15:55:59;;;;;;;2.33;0.93;;;34.80;25.70;;;;;;5075038;28;20501;-66
2021/03/30 15:58:44;;;;;;;3.55;0.95;;;33.50;25.50;;;;;;5067843;28;20032;-66
2021/03/30 16:01:28;;;;;;;4.50;1.02;;;34.30;26.40;;;;;;5042349;28;20040;-67
2021/03/30 16:04:12;;;;;;;4.88;0.68;;;33.00;25.70;;;;;;5067834;28;20077;-66